sensor_id;sensor_type;location;lat;lon;timestamp;pressure;altitude;pressure_sealevel;temperature;humidity
14612;BME280;7392;52.078;11.650;2024-02-21T00:02:23;101376.41;;;6.69;100.00
14612;BME280;7392;52.078;11.650;2024-02-21T00:04:51;101376.41;;;6.69;100.00
14612;BME280;7392;52.078;11.650;2024-02-21T00:07:20;101365.00;;;6.70;100.00
14612;BME280;7392;52.078;11.650;2024-02-21T00:09:49;101366.75;;;6.70;100.00
14612;BME280;7392;52.078;11.650;2024-02-21T00:12:17;101361.47;;;6.70;100.00
14612;BME280;7392;52.078;11.650;2024-02-21T00:14:45;101357.06;;;6.70;100.00
14612;BME280;7392;52.078;11.650;2024-02-21T00:17:15;101350.94;;;6.71;100.00
14612;BME280;7392;52.078;11.650;2024-02-21T00:19:44;101349.19;;;6.72;100.00
14612;BME280;7392;52.078;11.650;2024-02-21T00:22:12;101355.34;;;6.72;100.00
14612;BME280;7392;52.078;11.650;2024-02-21T00:24:40;101346.59;;;6.73;100.00
14612;BME280;7392;52.078;11.650;2024-02-21T00:27:09;101339.56;;;6.74;100.00
14612;BME280;7392;52.078;11.650;2024-02-21T00:29:37;101335.16;;;6.74;100.00
14612;BME280;7392;52.078;11.650;2024-02-21T00:32:05;101337.84;;;6.76;100.00
14612;BME280;7392;52.078;11.650;2024-02-21T00:34:33;101338.75;;;6.77;100.00
14612;BME280;7392;52.078;11.650;2024-02-21T00:37:02;101333.47;;;6.77;100.00
14612;BME280;7392;52.078;11.650;2024-02-21T00:39:30;101337.88;;;6.78;100.00
14612;BME280;7392;52.078;11.650;2024-02-21T00:41:58;101334.34;;;6.77;100.00
14612;BME280;7392;52.078;11.650;2024-02-21T00:44:27;101337.00;;;6.77;100.00
14612;BME280;7392;52.078;11.650;2024-02-21T00:46:55;101338.75;;;6.77;100.00
14612;BME280;7392;52.078;11.650;2024-02-21T00:49:23;101328.19;;;6.77;100.00
14612;BME280;7392;52.078;11.650;2024-02-21T00:51:51;101333.47;;;6.77;100.00
14612;BME280;7392;52.078;11.650;2024-02-21T00:54:19;101340.50;;;6.78;100.00
14612;BME280;7392;52.078;11.650;2024-02-21T00:56:47;101337.84;;;6.76;100.00
14612;BME280;7392;52.078;11.650;2024-02-21T00:59:15;101348.41;;;6.76;100.00
14612;BME280;7392;52.078;11.650;2024-02-21T01:01:44;101337.84;;;6.76;100.00
14612;BME280;7392;52.078;11.650;2024-02-21T01:04:12;101349.28;;;6.75;100.00
14612;BME280;7392;52.078;11.650;2024-02-21T01:06:40;101336.94;;;6.76;100.00
14612;BME280;7392;52.078;11.650;2024-02-21T01:09:11;101339.56;;;6.74;100.00
14612;BME280;7392;52.078;11.650;2024-02-21T01:11:39;101338.66;;;6.73;100.00
14612;BME280;7392;52.078;11.650;2024-02-21T01:14:07;101340.44;;;6.73;100.00
14612;BME280;7392;52.078;11.650;2024-02-21T01:16:35;101337.78;;;6.74;100.00
14612;BME280;7392;52.078;11.650;2024-02-21T01:19:04;101339.56;;;6.74;100.00
14612;BME280;7392;52.078;11.650;2024-02-21T01:21:32;101329.00;;;6.74;100.00
14612;BME280;7392;52.078;11.650;2024-02-21T01:24:00;101332.50;;;6.73;100.00
14612;BME280;7392;52.078;11.650;2024-02-21T01:26:27;101332.47;;;6.71;100.00
14612;BME280;7392;52.078;11.650;2024-02-21T01:28:55;101323.66;;;6.72;100.00
14612;BME280;7392;52.078;11.650;2024-02-21T01:31:23;101314.84;;;6.70;100.00
14612;BME280;7392;52.078;11.650;2024-02-21T01:33:51;101314.84;;;6.70;100.00
14612;BME280;7392;52.078;11.650;2024-02-21T01:36:21;101309.50;;;6.69;100.00
14612;BME280;7392;52.078;11.650;2024-02-21T01:38:48;101314.78;;;6.69;100.00
14612;BME280;7392;52.078;11.650;2024-02-21T01:41:16;101309.44;;;6.66;100.00
14612;BME280;7392;52.078;11.650;2024-02-21T01:43:45;101302.44;;;6.66;100.00
14612;BME280;7392;52.078;11.650;2024-02-21T01:46:13;101305.06;;;6.66;100.00
14612;BME280;7392;52.078;11.650;2024-02-21T01:48:40;101303.31;;;6.67;100.00
14612;BME280;7392;52.078;11.650;2024-02-21T01:51:09;101290.06;;;6.65;100.00
14612;BME280;7392;52.078;11.650;2024-02-21T01:53:42;101287.44;;;6.65;100.00
14612;BME280;7392;52.078;11.650;2024-02-21T01:56:12;101286.56;;;6.65;100.00
14612;BME280;7392;52.078;11.650;2024-02-21T01:58:42;101284.75;;;6.64;100.00
14612;BME280;7392;52.078;11.650;2024-02-21T02:01:10;101279.41;;;6.61;100.00
14612;BME280;7392;52.078;11.650;2024-02-21T02:03:39;101289.13;;;6.62;100.00
14612;BME280;7392;52.078;11.650;2024-02-21T02:06:07;101279.44;;;6.62;100.00
14612;BME280;7392;52.078;11.650;2024-02-21T02:08:35;101270.66;;;6.62;100.00
14612;BME280;7392;52.078;11.650;2024-02-21T02:11:04;101273.28;;;6.62;100.00
14612;BME280;7392;52.078;11.650;2024-02-21T02:13:33;101272.44;;;6.63;100.00
14612;BME280;7392;52.078;11.650;2024-02-21T02:16:02;101266.28;;;6.64;100.00
14612;BME280;7392;52.078;11.650;2024-02-21T02:18:30;101266.31;;;6.65;100.00
14612;BME280;7392;52.078;11.650;2024-02-21T02:20:58;101256.63;;;6.66;100.00
14612;BME280;7392;52.078;11.650;2024-02-21T02:23:28;101262.84;;;6.66;100.00
14612;BME280;7392;52.078;11.650;2024-02-21T02:25:57;101254.06;;;6.69;100.00
14612;BME280;7392;52.078;11.650;2024-02-21T02:28:25;101256.78;;;6.72;100.00
14612;BME280;7392;52.078;11.650;2024-02-21T02:30:53;101249.75;;;6.72;100.00
14612;BME280;7392;52.078;11.650;2024-02-21T02:33:21;101250.69;;;6.76;100.00
14612;BME280;7392;52.078;11.650;2024-02-21T02:35:49;101251.66;;;6.78;100.00
14612;BME280;7392;52.078;11.650;2024-02-21T02:38:17;101253.41;;;6.79;100.00
14612;BME280;7392;52.078;11.650;2024-02-21T02:40:46;101259.63;;;6.81;100.00
14612;BME280;7392;52.078;11.650;2024-02-21T02:43:15;101257.94;;;6.83;100.00
14612;BME280;7392;52.078;11.650;2024-02-21T02:45:43;101258.81;;;6.84;100.00
14612;BME280;7392;52.078;11.650;2024-02-21T02:48:11;101269.44;;;6.87;100.00
14612;BME280;7392;52.078;11.650;2024-02-21T02:50:39;101260.59;;;6.86;100.00
14612;BME280;7392;52.078;11.650;2024-02-21T02:53:07;101251.84;;;6.87;100.00
14612;BME280;7392;52.078;11.650;2024-02-21T02:55:35;101246.56;;;6.87;100.00
14612;BME280;7392;52.078;11.650;2024-02-21T02:58:04;101245.72;;;6.90;100.00
14612;BME280;7392;52.078;11.650;2024-02-21T03:00:32;101249.25;;;6.90;100.00
14612;BME280;7392;52.078;11.650;2024-02-21T03:03:03;101241.34;;;6.90;100.00
14612;BME280;7392;52.078;11.650;2024-02-21T03:05:31;101244.88;;;6.91;100.00
14612;BME280;7392;52.078;11.650;2024-02-21T03:07:59;101246.69;;;6.93;100.00
14612;BME280;7392;52.078;11.650;2024-02-21T03:10:27;101240.50;;;6.93;100.00
14612;BME280;7392;52.078;11.650;2024-02-21T03:12:55;101234.38;;;6.94;100.00
14612;BME280;7392;52.078;11.650;2024-02-21T03:15:25;101244.06;;;6.93;100.00
14612;BME280;7392;52.078;11.650;2024-02-21T03:17:52;101237.03;;;6.96;100.00
14612;BME280;7392;52.078;11.650;2024-02-21T03:20:21;101232.66;;;6.96;100.00
14612;BME280;7392;52.078;11.650;2024-02-21T03:22:49;101231.84;;;6.99;100.00
14612;BME280;7392;52.078;11.650;2024-02-21T03:25:17;101225.63;;;6.98;100.00
14612;BME280;7392;52.078;11.650;2024-02-21T03:27:46;101216.84;;;6.98;100.00
14612;BME280;7392;52.078;11.650;2024-02-21T03:30:14;101214.25;;;7.01;100.00
14612;BME280;7392;52.078;11.650;2024-02-21T03:32:44;101204.56;;;7.01;100.00
14612;BME280;7392;52.078;11.650;2024-02-21T03:35:11;101203.66;;;6.99;100.00
14612;BME280;7392;52.078;11.650;2024-02-21T03:37:39;101194.84;;;6.99;100.00
14612;BME280;7392;52.078;11.650;2024-02-21T03:40:08;101191.31;;;6.98;100.00
14612;BME280;7392;52.078;11.650;2024-02-21T03:42:37;101182.47;;;6.96;100.00
14612;BME280;7392;52.078;11.650;2024-02-21T03:45:06;101178.97;;;6.97;100.00
14612;BME280;7392;52.078;11.650;2024-02-21T03:47:34;101170.16;;;6.98;100.00
14612;BME280;7392;52.078;11.650;2024-02-21T03:50:04;101166.63;;;6.96;100.00
14612;BME280;7392;52.078;11.650;2024-02-21T03:52:32;101163.09;;;6.96;100.00
14612;BME280;7392;52.078;11.650;2024-02-21T03:55:00;101157.78;;;6.94;100.00
14612;BME280;7392;52.078;11.650;2024-02-21T03:57:28;101154.25;;;6.93;100.00
14612;BME280;7392;52.078;11.650;2024-02-21T03:59:56;101154.22;;;6.92;100.00
14612;BME280;7392;52.078;11.650;2024-02-21T04:02:24;101155.06;;;6.91;100.00
14612;BME280;7392;52.078;11.650;2024-02-21T04:04:52;101150.66;;;6.91;100.00
14612;BME280;7392;52.078;11.650;2024-02-21T04:07:21;101141.00;;;6.90;100.00
14612;BME280;7392;52.078;11.650;2024-02-21T04:09:49;101134.78;;;6.90;100.00
14612;BME280;7392;52.078;11.650;2024-02-21T04:12:17;101132.16;;;6.88;100.00
14612;BME280;7392;52.078;11.650;2024-02-21T04:14:45;101118.94;;;6.90;100.00
14612;BME280;7392;52.078;11.650;2024-02-21T04:17:13;101118.94;;;6.90;100.00
14612;BME280;7392;52.078;11.650;2024-02-21T04:19:41;101112.78;;;6.89;100.00
14612;BME280;7392;52.078;11.650;2024-02-21T04:22:23;101113.69;;;6.91;100.00
14612;BME280;7392;52.078;11.650;2024-02-21T04:25:13;101107.59;;;6.94;100.00
14612;BME280;7392;52.078;11.650;2024-02-21T04:27:43;101108.44;;;6.93;100.00
14612;BME280;7392;52.078;11.650;2024-02-21T04:30:12;101111.13;;;6.95;100.00
14612;BME280;7392;52.078;11.650;2024-02-21T04:32:46;101107.63;;;6.96;100.00
14612;BME280;7392;52.078;11.650;2024-02-21T04:35:18;101099.78;;;6.99;100.00
14612;BME280;7392;52.078;11.650;2024-02-21T04:37:49;101091.84;;;6.99;100.00
14612;BME280;7392;52.078;11.650;2024-02-21T04:40:23;101097.13;;;6.99;100.00
14612;BME280;7392;52.078;11.650;2024-02-21T04:42:55;101097.16;;;7.02;100.00
14612;BME280;7392;52.078;11.650;2024-02-21T04:45:27;101091.00;;;7.01;100.00
14612;BME280;7392;52.078;11.650;2024-02-21T04:48:00;101092.75;;;7.01;100.00
14612;BME280;7392;52.078;11.650;2024-02-21T04:50:31;101091.00;;;7.01;100.00
14612;BME280;7392;52.078;11.650;2024-02-21T04:53:02;101090.16;;;7.02;100.00
14612;BME280;7392;52.078;11.650;2024-02-21T04:55:36;101098.03;;;7.01;100.00
14612;BME280;7392;52.078;11.650;2024-02-21T04:58:06;101085.69;;;7.00;100.00
14612;BME280;7392;52.078;11.650;2024-02-21T05:00:37;101077.72;;;6.98;100.00
14612;BME280;7392;52.078;11.650;2024-02-21T05:03:09;101077.69;;;6.97;100.00
14612;BME280;7392;52.078;11.650;2024-02-21T05:05:42;101060.94;;;6.95;100.00
14612;BME280;7392;52.078;11.650;2024-02-21T05:08:15;101064.44;;;6.92;100.00
14612;BME280;7392;52.078;11.650;2024-02-21T05:10:51;101074.06;;;6.90;100.00
14612;BME280;7392;52.078;11.650;2024-02-21T05:13:20;101081.91;;;6.85;100.00
14612;BME280;7392;52.078;11.650;2024-02-21T05:15:49;101086.25;;;6.82;100.00
14612;BME280;7392;52.078;11.650;2024-02-21T05:18:18;101089.72;;;6.79;100.00
14612;BME280;7392;52.078;11.650;2024-02-21T05:20:53;101094.09;;;6.77;100.00
14612;BME280;7392;52.078;11.650;2024-02-21T05:23:23;101091.41;;;6.76;100.00
14612;BME280;7392;52.078;11.650;2024-02-21T05:25:52;101085.22;;;6.73;100.00
14612;BME280;7392;52.078;11.650;2024-02-21T05:28:22;101077.28;;;6.72;100.00
14612;BME280;7392;52.078;11.650;2024-02-21T05:30:52;101071.97;;;6.70;100.00
14612;BME280;7392;52.078;11.650;2024-02-21T05:33:21;101077.19;;;6.69;100.00
14612;BME280;7392;52.078;11.650;2024-02-21T05:35:54;101078.97;;;6.68;100.00
14612;BME280;7392;52.078;11.650;2024-02-21T05:38:28;101071.00;;;6.67;100.00
14612;BME280;7392;52.078;11.650;2024-02-21T05:40:57;101069.22;;;6.66;100.00
14612;BME280;7392;52.078;11.650;2024-02-21T05:43:26;101078.97;;;6.68;100.00
14612;BME280;7392;52.078;11.650;2024-02-21T05:45:58;101082.44;;;6.67;100.00
14612;BME280;7392;52.078;11.650;2024-02-21T05:48:26;101080.69;;;6.66;100.00
14612;BME280;7392;52.078;11.650;2024-02-21T05:50:55;101086.81;;;6.65;100.00
14612;BME280;7392;52.078;11.650;2024-02-21T05:53:31;101091.19;;;6.63;100.00
14612;BME280;7392;52.078;11.650;2024-02-21T05:56:10;101085.94;;;6.65;100.00
14612;BME280;7392;52.078;11.650;2024-02-21T05:58:40;101089.38;;;6.62;100.00
14612;BME280;7392;52.078;11.650;2024-02-21T06:01:16;101099.91;;;6.61;100.00
14612;BME280;7392;52.078;11.650;2024-02-21T06:03:48;101106.06;;;6.60;100.00
14612;BME280;7392;52.078;11.650;2024-02-21T06:06:16;101096.41;;;6.60;100.00
14612;BME280;7392;52.078;11.650;2024-02-21T06:08:49;101097.25;;;6.59;100.00
14612;BME280;7392;52.078;11.650;2024-02-21T06:11:18;101095.47;;;6.58;100.00
14612;BME280;7392;52.078;11.650;2024-02-21T06:13:49;101087.56;;;6.58;100.00
14612;BME280;7392;52.078;11.650;2024-02-21T06:16:20;101084.94;;;6.58;100.00
14612;BME280;7392;52.078;11.650;2024-02-21T06:18:54;101084.94;;;6.58;100.00
14612;BME280;7392;52.078;11.650;2024-02-21T06:21:31;101089.31;;;6.59;100.00
14612;BME280;7392;52.078;11.650;2024-02-21T06:24:04;101089.34;;;6.61;100.00
14612;BME280;7392;52.078;11.650;2024-02-21T06:26:35;101077.94;;;6.62;100.00
14612;BME280;7392;52.078;11.650;2024-02-21T06:29:04;101071.81;;;6.63;100.00
14612;BME280;7392;52.078;11.650;2024-02-21T06:31:33;101075.38;;;6.65;100.00
14612;BME280;7392;52.078;11.650;2024-02-21T06:34:12;101063.94;;;6.66;100.00
14612;BME280;7392;52.078;11.650;2024-02-21T06:36:44;101077.28;;;6.72;100.00
14612;BME280;7392;52.078;11.650;2024-02-21T06:39:15;101078.19;;;6.74;100.00
14612;BME280;7392;52.078;11.650;2024-02-21T06:41:45;101072.03;;;6.73;100.00
14612;BME280;7392;52.078;11.650;2024-02-21T06:44:16;101063.22;;;6.74;100.00
14612;BME280;7392;52.078;11.650;2024-02-21T06:46:51;101066.81;;;6.77;100.00
14612;BME280;7392;52.078;11.650;2024-02-21T06:49:21;101066.81;;;6.77;100.00
14612;BME280;7392;52.078;11.650;2024-02-21T06:51:53;101070.31;;;6.77;100.00
14612;BME280;7392;52.078;11.650;2024-02-21T06:54:24;101071.16;;;6.76;100.00
14612;BME280;7392;52.078;11.650;2024-02-21T06:56:52;101083.50;;;6.76;100.00
14612;BME280;7392;52.078;11.650;2024-02-21T06:59:21;101081.72;;;6.76;100.00
14612;BME280;7392;52.078;11.650;2024-02-21T07:01:54;101072.09;;;6.77;100.00
14612;BME280;7392;52.078;11.650;2024-02-21T07:04:31;101065.00;;;6.76;100.00
14612;BME280;7392;52.078;11.650;2024-02-21T07:07:02;101063.25;;;6.76;100.00
14612;BME280;7392;52.078;11.650;2024-02-21T07:09:39;101062.44;;;6.79;100.00
14612;BME280;7392;52.078;11.650;2024-02-21T07:12:08;101072.16;;;6.81;100.00
14612;BME280;7392;52.078;11.650;2024-02-21T07:14:39;101079.25;;;6.84;100.00
14612;BME280;7392;52.078;11.650;2024-02-21T07:17:12;101072.22;;;6.84;100.00
14612;BME280;7392;52.078;11.650;2024-02-21T07:19:44;101070.47;;;6.86;100.00
14612;BME280;7392;52.078;11.650;2024-02-21T07:22:28;101063.50;;;6.88;100.00
14612;BME280;7392;52.078;11.650;2024-02-21T07:25:01;101071.41;;;6.90;100.00
14612;BME280;7392;52.078;11.650;2024-02-21T07:27:35;101065.31;;;6.92;100.00
14612;BME280;7392;52.078;11.650;2024-02-21T07:30:07;101053.91;;;6.95;100.00
14612;BME280;7392;52.078;11.650;2024-02-21T07:32:45;101052.19;;;6.96;100.00
14612;BME280;7392;52.078;11.650;2024-02-21T07:35:15;101045.22;;;7.01;100.00
14612;BME280;7392;52.078;11.650;2024-02-21T07:37:45;101047.91;;;7.04;100.00
14612;BME280;7392;52.078;11.650;2024-02-21T07:40:17;101054.16;;;7.09;100.00
14612;BME280;7392;52.078;11.650;2024-02-21T07:42:47;101057.75;;;7.13;100.00
14612;BME280;7392;52.078;11.650;2024-02-21T07:45:18;101050.78;;;7.18;100.00
14612;BME280;7392;52.078;11.650;2024-02-21T07:47:53;101051.75;;;7.23;100.00
14612;BME280;7392;52.078;11.650;2024-02-21T07:50:25;101057.09;;;7.27;100.00
14612;BME280;7392;52.078;11.650;2024-02-21T07:53:06;101059.81;;;7.32;100.00
14612;BME280;7392;52.078;11.650;2024-02-21T07:55:37;101066.09;;;7.39;100.00
14612;BME280;7392;52.078;11.650;2024-02-21T07:58:08;101067.94;;;7.44;100.00
14612;BME280;7392;52.078;11.650;2024-02-21T08:00:41;101070.72;;;7.52;100.00
14612;BME280;7392;52.078;11.650;2024-02-21T08:03:12;101066.38;;;7.57;100.00
14612;BME280;7392;52.078;11.650;2024-02-21T08:05:43;101064.69;;;7.62;100.00
14612;BME280;7392;52.078;11.650;2024-02-21T08:08:14;101070.88;;;7.64;100.00
14612;BME280;7392;52.078;11.650;2024-02-21T08:10:53;101070.94;;;7.67;100.00
14612;BME280;7392;52.078;11.650;2024-02-21T08:13:24;101070.97;;;7.69;100.00
14612;BME280;7392;52.078;11.650;2024-02-21T08:15:57;101060.41;;;7.71;100.00
14612;BME280;7392;52.078;11.650;2024-02-21T08:18:29;101071.03;;;7.75;100.00
14612;BME280;7392;52.078;11.650;2024-02-21T08:20:58;101070.22;;;7.78;100.00
14612;BME280;7392;52.078;11.650;2024-02-21T08:23:32;101080.06;;;7.88;100.00
14612;BME280;7392;52.078;11.650;2024-02-21T08:26:04;101078.25;;;7.87;100.00
14612;BME280;7392;52.078;11.650;2024-02-21T08:28:34;101073.00;;;7.89;100.00
14612;BME280;7392;52.078;11.650;2024-02-21T08:31:04;101068.63;;;7.92;100.00
14612;BME280;7392;52.078;11.650;2024-02-21T08:33:32;101069.56;;;7.96;100.00
14612;BME280;7392;52.078;11.650;2024-02-21T08:36:04;101069.63;;;8.00;100.00
14612;BME280;7392;52.078;11.650;2024-02-21T08:38:35;101059.16;;;8.08;100.00
14612;BME280;7392;52.078;11.650;2024-02-21T08:41:11;101064.50;;;8.13;100.00
14612;BME280;7392;52.078;11.650;2024-02-21T08:43:43;101054.84;;;8.16;100.00
14612;BME280;7392;52.078;11.650;2024-02-21T08:46:12;101066.38;;;8.20;100.00
14612;BME280;7392;52.078;11.650;2024-02-21T08:48:41;101056.69;;;8.22;100.00
14612;BME280;7392;52.078;11.650;2024-02-21T08:51:10;101057.66;;;8.27;100.00
14612;BME280;7392;52.078;11.650;2024-02-21T08:53:40;101058.56;;;8.31;100.00
14612;BME280;7392;52.078;11.650;2024-02-21T08:56:15;101055.97;;;8.35;100.00
14612;BME280;7392;52.078;11.650;2024-02-21T08:58:45;101057.78;;;8.39;100.00
14612;BME280;7392;52.078;11.650;2024-02-21T09:01:19;101049.97;;;8.46;100.00
14612;BME280;7392;52.078;11.650;2024-02-21T09:03:49;101056.19;;;8.51;100.00
14612;BME280;7392;52.078;11.650;2024-02-21T09:06:24;101056.25;;;8.57;100.00
14612;BME280;7392;52.078;11.650;2024-02-21T09:08:56;101058.09;;;8.63;100.00
14612;BME280;7392;52.078;11.650;2024-02-21T09:11:27;101068.75;;;8.70;100.00
14612;BME280;7392;52.078;11.650;2024-02-21T09:13:56;101063.47;;;8.72;100.00
14612;BME280;7392;52.078;11.650;2024-02-21T09:16:25;101058.19;;;8.73;100.00
14612;BME280;7392;52.078;11.650;2024-02-21T09:19:02;101051.16;;;8.77;100.00
14612;BME280;7392;52.078;11.650;2024-02-21T09:21:36;101054.72;;;8.79;100.00
14612;BME280;7392;52.078;11.650;2024-02-21T09:24:05;101047.66;;;8.81;100.00
14612;BME280;7392;52.078;11.650;2024-02-21T09:26:41;101040.66;;;8.83;100.00
14612;BME280;7392;52.078;11.650;2024-02-21T09:29:10;101044.19;;;8.87;100.00
14612;BME280;7392;52.078;11.650;2024-02-21T09:31:43;101032.72;;;8.89;100.00
14612;BME280;7392;52.078;11.650;2024-02-21T09:34:11;101036.28;;;8.93;100.00
14612;BME280;7392;52.078;11.650;2024-02-21T09:36:40;101042.50;;;8.96;100.00
14612;BME280;7392;52.078;11.650;2024-02-21T09:39:09;101039.94;;;9.03;100.00
14612;BME280;7392;52.078;11.650;2024-02-21T09:41:45;101036.41;;;9.04;100.00
14612;BME280;7392;52.078;11.650;2024-02-21T09:44:16;101039.06;;;9.07;100.00
14612;BME280;7392;52.078;11.650;2024-02-21T09:46:52;101039.13;;;9.11;100.00
14612;BME280;7392;52.078;11.650;2024-02-21T09:49:33;101040.03;;;9.15;100.00
14612;BME280;7392;52.078;11.650;2024-02-21T09:52:10;101038.31;;;9.23;100.00
14612;BME280;7392;52.078;11.650;2024-02-21T09:54:42;101033.94;;;9.28;100.00
14612;BME280;7392;52.078;11.650;2024-02-21T09:57:17;101038.41;;;9.35;100.00
14612;BME280;7392;52.078;11.650;2024-02-21T09:59:45;101030.53;;;9.42;100.00
14612;BME280;7392;52.078;11.650;2024-02-21T10:02:14;101016.41;;;9.49;100.00
14612;BME280;7392;52.078;11.650;2024-02-21T10:04:43;101016.50;;;9.61;100.00
14612;BME280;7392;52.078;11.650;2024-02-21T10:07:12;101015.75;;;9.82;100.00
14612;BME280;7392;52.078;11.650;2024-02-21T10:09:41;101008.78;;;10.04;99.96
14612;BME280;7392;52.078;11.650;2024-02-21T10:12:13;101004.41;;;10.19;98.09
14612;BME280;7392;52.078;11.650;2024-02-21T10:15:04;101007.19;;;10.51;96.46
14612;BME280;7392;52.078;11.650;2024-02-21T10:17:35;101008.09;;;10.75;95.33
14612;BME280;7392;52.078;11.650;2024-02-21T10:20:07;101024.97;;;10.98;93.14
14612;BME280;7392;52.078;11.650;2024-02-21T10:22:41;101022.28;;;11.18;90.82
14612;BME280;7392;52.078;11.650;2024-02-21T10:25:13;101007.22;;;11.33;89.07
14612;BME280;7392;52.078;11.650;2024-02-21T10:27:42;101007.22;;;11.50;88.99
14612;BME280;7392;52.078;11.650;2024-02-21T10:30:14;101007.16;;;11.67;87.38
14612;BME280;7392;52.078;11.650;2024-02-21T10:32:50;101011.59;;;11.65;84.03
14612;BME280;7392;52.078;11.650;2024-02-21T10:35:29;101007.19;;;11.62;85.10
14612;BME280;7392;52.078;11.650;2024-02-21T10:37:59;101000.97;;;11.60;84.62
14612;BME280;7392;52.078;11.650;2024-02-21T10:40:29;100994.78;;;11.53;83.31
14612;BME280;7392;52.078;11.650;2024-02-21T10:43:02;100986.81;;;11.52;83.55
14612;BME280;7392;52.078;11.650;2024-02-21T10:45:35;100987.69;;;11.58;84.52
14612;BME280;7392;52.078;11.650;2024-02-21T10:48:13;100985.91;;;11.62;82.37
14612;BME280;7392;52.078;11.650;2024-02-21T10:50:57;100991.22;;;11.65;82.44
14612;BME280;7392;52.078;11.650;2024-02-21T10:53:44;100974.34;;;11.69;79.42
14612;BME280;7392;52.078;11.650;2024-02-21T10:56:26;100973.41;;;11.76;81.44
14612;BME280;7392;52.078;11.650;2024-02-21T10:59:05;100960.09;;;11.83;79.88
14612;BME280;7392;52.078;11.650;2024-02-21T11:01:38;100952.09;;;11.87;81.05
14612;BME280;7392;52.078;11.650;2024-02-21T11:04:11;100954.75;;;11.98;81.78
14612;BME280;7392;52.078;11.650;2024-02-21T11:06:45;100948.50;;;12.07;82.64
14612;BME280;7392;52.078;11.650;2024-02-21T11:09:29;100947.59;;;12.09;80.20
14612;BME280;7392;52.078;11.650;2024-02-21T11:11:58;100941.38;;;12.10;79.49
14612;BME280;7392;52.078;11.650;2024-02-21T11:14:28;100933.38;;;12.10;78.53
14612;BME280;7392;52.078;11.650;2024-02-21T11:17:01;100934.25;;;12.12;77.06
14612;BME280;7392;52.078;11.650;2024-02-21T11:19:33;100926.25;;;12.12;77.33
14612;BME280;7392;52.078;11.650;2024-02-21T11:22:14;100935.16;;;12.08;75.46
14612;BME280;7392;52.078;11.650;2024-02-21T11:24:44;100917.41;;;12.09;75.97
14612;BME280;7392;52.078;11.650;2024-02-21T11:27:13;100925.38;;;12.15;76.80
14612;BME280;7392;52.078;11.650;2024-02-21T11:29:45;100914.72;;;12.16;75.63
14612;BME280;7392;52.078;11.650;2024-02-21T11:32:16;100909.38;;;12.18;76.16
14612;BME280;7392;52.078;11.650;2024-02-21T11:34:55;100900.53;;;12.14;75.97
14612;BME280;7392;52.078;11.650;2024-02-21T11:37:25;100907.69;;;12.08;76.06
14612;BME280;7392;52.078;11.650;2024-02-21T11:39:55;100895.22;;;12.10;75.70
14612;BME280;7392;52.078;11.650;2024-02-21T11:42:25;100889.91;;;12.13;75.84
14612;BME280;7392;52.078;11.650;2024-02-21T11:44:56;100884.50;;;12.22;75.13
14612;BME280;7392;52.078;11.650;2024-02-21T11:47:31;100887.16;;;12.22;74.95
14612;BME280;7392;52.078;11.650;2024-02-21T11:50:01;100877.34;;;12.30;74.49
14612;BME280;7392;52.078;11.650;2024-02-21T11:52:31;100877.28;;;12.37;72.83
14612;BME280;7392;52.078;11.650;2024-02-21T11:55:03;100872.78;;;12.46;74.44
14612;BME280;7392;52.078;11.650;2024-02-21T11:57:32;100859.41;;;12.56;73.12
14612;BME280;7392;52.078;11.650;2024-02-21T12:00:15;100865.50;;;12.67;74.49
14612;BME280;7392;52.078;11.650;2024-02-21T12:02:47;100857.38;;;12.82;74.81
14612;BME280;7392;52.078;11.650;2024-02-21T12:05:19;100852.88;;;12.87;71.93
14612;BME280;7392;52.078;11.650;2024-02-21T12:07:48;100853.66;;;12.97;73.15
14612;BME280;7392;52.078;11.650;2024-02-21T12:10:20;100853.63;;;13.02;73.16
14612;BME280;7392;52.078;11.650;2024-02-21T12:12:48;100839.34;;;13.06;71.25
14612;BME280;7392;52.078;11.650;2024-02-21T12:15:19;100833.13;;;13.07;70.12
14612;BME280;7392;52.078;11.650;2024-02-21T12:17:49;100825.19;;;13.02;70.02
14612;BME280;7392;52.078;11.650;2024-02-21T12:20:23;100823.41;;;13.00;70.50
14612;BME280;7392;52.078;11.650;2024-02-21T12:22:55;100817.22;;;12.99;70.71
14612;BME280;7392;52.078;11.650;2024-02-21T12:25:30;100810.91;;;13.06;70.65
14612;BME280;7392;52.078;11.650;2024-02-21T12:27:59;100811.81;;;13.05;70.16
14612;BME280;7392;52.078;11.650;2024-02-21T12:30:30;100804.66;;;13.09;71.04
14612;BME280;7392;52.078;11.650;2024-02-21T12:33:03;100797.38;;;13.23;71.61
14612;BME280;7392;52.078;11.650;2024-02-21T12:35:35;100785.69;;;13.35;71.21
14612;BME280;7392;52.078;11.650;2024-02-21T12:38:07;100778.44;;;13.48;71.04
14612;BME280;7392;52.078;11.650;2024-02-21T12:40:36;100772.25;;;13.44;66.71
14612;BME280;7392;52.078;11.650;2024-02-21T12:43:05;100763.44;;;13.38;68.13
14612;BME280;7392;52.078;11.650;2024-02-21T12:45:34;100764.25;;;13.44;69.09
14612;BME280;7392;52.078;11.650;2024-02-21T12:48:08;100756.13;;;13.52;69.23
14612;BME280;7392;52.078;11.650;2024-02-21T12:50:37;100755.22;;;13.55;66.54
14612;BME280;7392;52.078;11.650;2024-02-21T12:53:07;100753.41;;;13.55;65.35
14612;BME280;7392;52.078;11.650;2024-02-21T12:55:52;100750.81;;;13.49;63.79
14612;BME280;7392;52.078;11.650;2024-02-21T12:58:24;100759.84;;;13.40;63.26
14612;BME280;7392;52.078;11.650;2024-02-21T13:00:54;100751.88;;;13.37;64.06
14612;BME280;7392;52.078;11.650;2024-02-21T13:03:24;100751.03;;;13.35;64.03
14612;BME280;7392;52.078;11.650;2024-02-21T13:05:54;100753.59;;;13.43;64.75
14612;BME280;7392;52.078;11.650;2024-02-21T13:08:23;100753.47;;;13.51;66.00
14612;BME280;7392;52.078;11.650;2024-02-21T13:10:51;100756.19;;;13.47;62.93